Time;durP1;ratioP1;P1;durP2;ratioP2;P2;SDS_P1;SDS_P2;PMS_P1;PMS_P2;Temp;Humidity;BMP_temperature;BMP_pressure;BME280_temperature;BME280_humidity;BME280_pressure;Samples;Min_cycle;Max_cycle;Signal;HPM_P1;HPM_P2
2021/05/28 00:02:26;;;;;;;0.82;0.50;;;;;;;31.00;18.61;98256.00;5094539;28;20032;-89
2021/05/28 00:04:52;;;;;;;1.13;0.63;;;;;;;31.07;18.60;98255.66;5094331;28;20028;-89
2021/05/28 00:07:18;;;;;;;0.93;0.50;;;;;;;31.17;18.65;98248.72;5094524;28;20059;-89
2021/05/28 00:09:44;;;;;;;1.77;0.82;;;;;;;31.33;18.36;98256.84;5094291;28;20469;-89
2021/05/28 00:12:10;;;;;;;0.75;0.70;;;;;;;31.20;18.43;98256.28;5094299;28;20036;-90
2021/05/28 00:14:36;;;;;;;0.80;0.70;;;;;;;31.10;18.55;98258.34;5094175;28;20475;-90
2021/05/28 00:17:02;;;;;;;0.68;0.40;;;;;;;31.23;18.46;98258.91;5094155;28;20064;-90
2021/05/28 00:19:28;;;;;;;1.05;0.68;;;;;;;31.19;18.39;98255.47;5094092;28;20044;-90
2021/05/28 00:21:55;;;;;;;0.70;0.52;;;;;;;31.15;18.54;98262.59;5094091;28;20028;-89
2021/05/28 00:24:21;;;;;;;1.23;0.70;;;;;;;31.15;18.63;98259.75;5094175;28;20067;-90
2021/05/28 00:26:47;;;;;;;0.60;0.50;;;;;;;31.19;18.12;98263.19;5093881;28;20034;-90
2021/05/28 00:29:13;;;;;;;0.95;0.57;;;;;;;31.14;18.32;98250.44;5094047;28;20028;-90
2021/05/28 00:31:40;;;;;;;0.90;0.50;;;;;;;31.37;18.14;98255.41;5092490;28;20063;-89
2021/05/28 00:34:06;;;;;;;2.97;0.63;;;;;;;31.55;17.89;98259.44;5093925;28;20024;-90
2021/05/28 00:36:32;;;;;;;0.93;0.60;;;;;;;31.35;17.88;98254.28;5093807;28;20476;-89
2021/05/28 00:38:58;;;;;;;1.25;0.57;;;;;;;31.47;18.10;98249.69;5075305;28;20139;-90
2021/05/28 00:41:24;;;;;;;1.35;0.70;;;;;;;31.63;17.71;98247.25;5073343;28;20028;-90
2021/05/28 00:43:50;;;;;;;1.13;0.70;;;;;;;31.61;17.74;98254.66;5089246;28;20025;-89
2021/05/28 00:46:16;;;;;;;1.10;0.70;;;;;;;31.23;18.16;98249.63;5073566;28;20039;-90
2021/05/28 00:48:42;;;;;;;1.75;0.88;;;;;;;30.71;19.07;98259.38;5087564;28;20039;-90
2021/05/28 00:51:08;;;;;;;1.13;0.60;;;;;;;30.31;19.22;98268.03;5093696;28;20036;-90
2021/05/28 00:53:35;;;;;;;1.27;0.68;;;;;;;30.40;19.59;98268.06;5093564;28;20500;-89
2021/05/28 00:56:02;;;;;;;0.50;0.50;;;;;;;30.23;19.49;98263.94;5093433;28;20035;-89
2021/05/28 00:58:29;;;;;;;0.95;0.57;;;;;;;30.54;19.21;98263.78;5093712;28;20111;-90
2021/05/28 01:00:56;;;;;;;1.38;0.65;;;;;;;30.82;19.14;98267.38;5090724;28;20032;-89
2021/05/28 01:03:22;;;;;;;2.10;0.50;;;;;;;31.08;18.81;98272.22;5092889;28;20495;-89
2021/05/28 01:05:48;;;;;;;1.35;0.88;;;;;;;31.09;18.42;98270.16;5087949;28;20480;-89
2021/05/28 01:08:14;;;;;;;1.25;0.80;;;;;;;30.94;18.69;98267.22;5093317;28;20028;-90
2021/05/28 01:10:40;;;;;;;2.55;0.70;;;;;;;30.67;18.86;98268.03;5093312;28;20040;-89
2021/05/28 01:13:08;;;;;;;0.50;0.50;;;;;;;30.69;19.10;98267.56;5093682;28;20079;-90
2021/05/28 01:15:36;;;;;;;1.30;0.60;;;;;;;30.95;18.49;98262.34;5093385;28;20473;-90
2021/05/28 01:18:03;;;;;;;2.38;0.85;;;;;;;31.00;18.48;98270.97;5093401;28;20055;-90
2021/05/28 01:20:30;;;;;;;1.10;0.68;;;;;;;30.62;19.22;98274.31;5093457;28;20590;-90
2021/05/28 01:22:58;;;;;;;1.17;0.75;;;;;;;30.53;19.21;98274.34;5093126;28;20036;-90
2021/05/28 01:25:28;;;;;;;2.97;0.68;;;;;;;30.80;18.80;98262.19;5093180;28;20021;-90
2021/05/28 01:27:55;;;;;;;2.00;0.70;;;;;;;31.01;18.46;98271.78;5093373;28;20476;-90
2021/05/28 01:30:24;;;;;;;0.98;0.50;;;;;;;31.30;18.07;98274.81;5093252;28;20277;-90
2021/05/28 01:32:51;;;;;;;1.85;0.70;;;;;;;31.44;18.21;98281.91;5093792;28;20024;-90
2021/05/28 01:35:17;;;;;;;1.67;0.75;;;;;;;31.23;18.33;98280.81;5093091;28;20028;-90
2021/05/28 01:37:44;;;;;;;0.93;0.57;;;;;;;30.80;18.97;98290.53;5093089;28;20526;-89
2021/05/28 01:40:11;;;;;;;0.80;0.70;;;;;;;30.59;19.46;98277.34;5092753;28;20060;-90
2021/05/28 01:42:38;;;;;;;2.25;0.68;;;;;;;30.64;19.08;98283.13;5093168;28;20025;-89
2021/05/28 01:45:05;;;;;;;1.27;0.60;;;;;;;30.65;19.46;98290.41;5093120;28;20035;-89
2021/05/28 01:47:31;;;;;;;1.25;0.80;;;;;;;30.17;20.07;98294.16;5092954;28;20508;-90
2021/05/28 01:49:58;;;;;;;2.05;0.60;;;;;;;29.89;20.02;98293.34;5093456;28;20028;-90
2021/05/28 01:52:25;;;;;;;1.38;0.80;;;;;;;29.72;20.30;98296.84;5093746;28;20029;-89
2021/05/28 01:54:51;;;;;;;1.05;0.60;;;;;;;29.82;20.23;98298.50;5092910;28;20039;-89
2021/05/28 01:57:18;;;;;;;2.30;0.80;;;;;;;29.93;19.81;98293.97;5094039;28;20076;-89
2021/05/28 01:59:45;;;;;;;0.80;0.70;;;;;;;29.89;19.80;98298.19;5097349;28;20032;-89
2021/05/28 02:02:12;;;;;;;0.93;0.70;;;;;;;30.06;19.69;98299.47;5097164;28;20143;-89
2021/05/28 02:04:41;;;;;;;1.38;0.85;;;;;;;30.47;19.18;98304.59;5095443;28;20087;-89
2021/05/28 02:07:07;;;;;;;1.40;0.80;;;;;;;30.54;19.07;98301.44;5095451;28;20069;-89
2021/05/28 02:09:33;;;;;;;1.42;0.80;;;;;;;30.40;19.00;98304.91;5096739;28;20032;-89
2021/05/28 02:12:00;;;;;;;1.05;0.60;;;;;;;30.25;19.42;98301.06;5096628;28;20031;-89
2021/05/28 02:14:29;;;;;;;1.90;1.02;;;;;;;30.55;18.87;98299.41;5096452;28;20077;-89
2021/05/28 02:16:56;;;;;;;3.60;0.70;;;;;;;30.61;18.80;98303.94;5096552;28;20058;-90
2021/05/28 02:19:22;;;;;;;3.47;0.60;;;;;;;30.17;19.44;98304.69;5096541;28;20051;-90
2021/05/28 02:21:50;;;;;;;2.67;0.70;;;;;;;29.87;19.67;98307.16;5096384;28;20040;-89
2021/05/28 02:24:17;;;;;;;2.13;0.70;;;;;;;29.77;19.87;98307.59;5096765;28;20032;-89
2021/05/28 02:26:47;;;;;;;2.53;0.60;;;;;;;29.71;19.79;98309.44;5096691;28;20060;-89
2021/05/28 02:29:13;;;;;;;1.70;0.95;;;;;;;29.82;19.95;98309.81;5096438;28;20449;-89
2021/05/28 02:31:40;;;;;;;1.55;0.77;;;;;;;29.89;19.79;98318.03;5096256;28;20476;-89
2021/05/28 02:34:06;;;;;;;1.25;0.85;;;;;;;29.89;19.59;98324.47;5096262;28;20028;-89
2021/05/28 02:36:32;;;;;;;1.40;0.70;;;;;;;29.86;19.42;98321.78;5087655;28;20017;-89
2021/05/28 02:38:58;;;;;;;0.88;0.70;;;;;;;30.14;19.27;98329.06;5076506;28;20092;-89
2021/05/28 02:41:25;;;;;;;2.85;0.55;;;;;;;30.37;18.66;98325.66;5075862;28;20036;-89
2021/05/28 02:43:51;;;;;;;1.13;0.60;;;;;;;30.48;18.79;98334.47;5076142;28;20082;-89
2021/05/28 02:46:17;;;;;;;1.55;0.93;;;;;;;30.07;19.38;98326.53;5078106;28;20020;-89
2021/05/28 02:48:43;;;;;;;2.67;0.70;;;;;;;29.76;19.85;98329.44;5096438;28;20395;-89
2021/05/28 02:51:09;;;;;;;3.60;0.80;;;;;;;29.84;19.58;98332.78;5096348;28;20399;-89
2021/05/28 02:53:35;;;;;;;1.17;0.77;;;;;;;29.84;19.72;98324.28;5095731;28;20032;-89
2021/05/28 02:56:06;;;;;;;1.80;1.08;;;;;;;29.69;19.83;98328.91;5094658;28;20109;-89
2021/05/28 02:58:33;;;;;;;2.10;0.90;;;;;;;29.46;19.88;98329.47;5095724;28;20153;-89
2021/05/28 03:00:59;;;;;;;1.70;0.90;;;;;;;29.34;20.19;98323.44;5095721;28;20028;-89
2021/05/28 03:03:25;;;;;;;1.30;0.80;;;;;;;29.19;20.19;98321.66;5095843;28;20039;-89
2021/05/28 03:05:52;;;;;;;0.70;0.63;;;;;;;29.08;20.34;98333.31;5095076;28;20036;-89
2021/05/28 03:08:19;;;;;;;1.08;0.90;;;;;;;29.16;20.03;98331.00;5095657;28;20051;-89
2021/05/28 03:10:45;;;;;;;1.80;1.02;;;;;;;29.50;19.89;98327.28;5095732;28;20077;-89
2021/05/28 03:13:13;;;;;;;2.35;0.73;;;;;;;29.83;19.25;98329.16;5095416;28;20035;-89
2021/05/28 03:15:39;;;;;;;1.38;1.00;;;;;;;29.77;19.44;98338.75;5091572;28;20036;-89
2021/05/28 03:18:13;;;;;;;1.05;0.80;;;;;;;29.66;19.37;98336.31;5079382;28;20033;-89
2021/05/28 03:20:41;;;;;;;1.40;0.90;;;;;;;29.46;19.96;98338.75;5080046;28;20036;-89
2021/05/28 03:23:07;;;;;;;1.48;0.98;;;;;;;29.29;20.23;98340.25;5094087;28;20028;-89
2021/05/28 03:25:34;;;;;;;2.33;1.02;;;;;;;29.17;20.27;98339.03;5095291;28;20032;-89
2021/05/28 03:28:00;;;;;;;4.07;0.80;;;;;;;29.35;20.00;98335.56;5095202;28;20035;-88
2021/05/28 03:30:26;;;;;;;1.75;0.77;;;;;;;29.66;19.56;98347.66;5095153;28;20028;-89
2021/05/28 03:32:52;;;;;;;1.23;0.90;;;;;;;29.91;19.49;98353.09;5094865;28;20028;-89
2021/05/28 03:35:19;;;;;;;0.88;0.63;;;;;;;30.04;19.02;98352.97;5094742;28;20055;-89
2021/05/28 03:37:45;;;;;;;1.52;0.80;;;;;;;30.25;19.05;98357.72;5094810;28;20020;-88
2021/05/28 03:40:12;;;;;;;1.65;0.80;;;;;;;30.36;18.84;98360.16;5095205;28;20052;-89
2021/05/28 03:42:38;;;;;;;2.00;0.95;;;;;;;30.20;19.21;98366.84;5095277;28;20494;-88
2021/05/28 03:45:06;;;;;;;1.17;0.60;;;;;;;30.19;19.03;98362.44;5094896;28;20024;-89
2021/05/28 03:47:33;;;;;;;1.08;0.73;;;;;;;30.32;18.96;98363.09;5094966;28;20028;-89
2021/05/28 03:50:00;;;;;;;1.23;0.80;;;;;;;30.47;18.90;98361.25;5094644;28;20488;-89
2021/05/28 03:52:26;;;;;;;1.55;0.93;;;;;;;30.71;19.00;98365.03;5093519;28;20043;-89
2021/05/28 03:54:52;;;;;;;1.20;0.70;;;;;;;30.90;18.86;98365.84;5094573;28;20063;-88
2021/05/28 03:57:18;;;;;;;1.35;0.90;;;;;;;30.89;18.54;98360.66;5094926;28;20111;-89
2021/05/28 03:59:44;;;;;;;1.27;0.77;;;;;;;30.52;19.02;98359.84;5094625;28;20028;-89
2021/05/28 04:02:10;;;;;;;1.80;0.88;;;;;;;30.64;18.85;98364.56;5094567;28;20060;-89
2021/05/28 04:04:36;;;;;;;0.90;0.68;;;;;;;30.70;18.76;98360.63;5094432;28;20036;-89
2021/05/28 04:07:02;;;;;;;1.65;0.80;;;;;;;30.88;18.50;98361.91;5079285;28;20032;-89
2021/05/28 04:09:29;;;;;;;2.50;1.23;;;;;;;30.54;19.09;98368.66;5074229;28;20098;-89
2021/05/28 04:11:56;;;;;;;1.33;0.90;;;;;;;29.64;20.23;98381.25;5081534;28;20031;-89
2021/05/28 04:14:22;;;;;;;1.70;1.08;;;;;;;29.13;20.76;98369.50;5093115;28;20032;-89
2021/05/28 04:16:48;;;;;;;1.92;1.17;;;;;;;28.92;20.91;98373.13;5094269;28;20115;-89
2021/05/28 04:19:14;;;;;;;2.47;1.05;;;;;;;29.15;20.70;98369.81;5093594;28;20044;-89
2021/05/28 04:21:40;;;;;;;1.25;0.93;;;;;;;29.58;20.49;98368.97;5093850;28;20081;-89
2021/05/28 04:24:07;;;;;;;1.42;0.90;;;;;;;29.75;20.15;98373.16;5094011;28;20501;-89
2021/05/28 04:26:33;;;;;;;1.70;0.70;;;;;;;30.07;20.02;98369.03;5094382;28;20039;-89
2021/05/28 04:28:59;;;;;;;2.35;0.88;;;;;;;30.48;19.78;98371.31;5093913;28;20047;-89
2021/05/28 04:31:25;;;;;;;2.75;1.00;;;;;;;30.65;19.40;98371.81;5094622;28;20066;-89
2021/05/28 04:33:51;;;;;;;1.63;1.00;;;;;;;30.76;19.28;98367.25;5093950;28;20418;-89
2021/05/28 04:36:17;;;;;;;1.98;1.05;;;;;;;30.95;19.59;98372.94;5093805;28;20107;-89
2021/05/28 04:38:44;;;;;;;2.05;1.40;;;;;;;30.66;19.27;98379.84;5093985;28;20542;-89
2021/05/28 04:41:10;;;;;;;3.30;1.30;;;;;;;29.92;20.17;98373.72;5094952;28;20394;-89
2021/05/28 04:43:36;;;;;;;4.45;1.63;;;;;;;29.77;20.49;98378.38;5093810;28;20081;-89
2021/05/28 04:46:02;;;;;;;1.77;1.17;;;;;;;29.72;20.95;98379.72;5093796;28;20566;-90
2021/05/28 04:48:28;;;;;;;3.38;1.52;;;;;;;29.85;20.57;98377.59;5093953;28;20383;-89
2021/05/28 04:50:54;;;;;;;2.35;1.25;;;;;;;30.07;20.56;98372.66;5093713;28;20044;-89
2021/05/28 04:53:23;;;;;;;2.33;1.45;;;;;;;29.43;20.54;98385.72;5093841;28;20032;-89
2021/05/28 04:55:49;;;;;;;3.67;1.88;;;;;;;29.36;21.17;98377.50;5091496;28;20040;-89
2021/05/28 04:58:15;;;;;;;1.35;1.13;;;;;;;29.91;20.41;98378.59;5092458;28;20085;-89
2021/05/28 05:00:42;;;;;;;3.67;1.70;;;;;;;30.23;20.20;98379.28;5093671;28;20028;-90
2021/05/28 05:03:08;;;;;;;2.85;1.90;;;;;;;30.89;19.94;98369.16;5093201;28;20024;-89
2021/05/28 05:05:34;;;;;;;4.47;1.92;;;;;;;31.41;19.19;98378.03;5079286;28;20040;-89
2021/05/28 05:08:00;;;;;;;2.15;1.33;;;;;;;31.37;18.87;98385.94;5085055;28;20063;-89
2021/05/28 05:10:26;;;;;;;1.67;1.13;;;;;;;30.75;19.22;98379.84;5092325;28;20101;-89
2021/05/28 05:12:53;;;;;;;3.88;1.40;;;;;;;30.21;19.80;98379.75;5093440;28;20044;-90
2021/05/28 05:15:19;;;;;;;1.95;1.52;;;;;;;30.27;19.57;98383.53;5093400;28;20438;-89
2021/05/28 05:17:45;;;;;;;1.40;1.30;;;;;;;30.03;19.76;98388.22;5092931;28;20048;-89
2021/05/28 05:20:11;;;;;;;1.38;1.20;;;;;;;30.46;19.58;98384.38;5088210;28;20127;-89
2021/05/28 05:22:37;;;;;;;3.03;1.42;;;;;;;30.73;19.57;98390.09;5092284;28;20036;-89
2021/05/28 05:25:05;;;;;;;2.88;1.52;;;;;;;30.06;20.24;98398.59;5093682;28;20028;-89
2021/05/28 05:27:31;;;;;;;1.55;1.00;;;;;;;29.49;20.95;98394.41;5073201;28;20036;-89
2021/05/28 05:29:57;;;;;;;2.08;1.17;;;;;;;30.25;19.85;98397.38;5073330;28;20358;-91
2021/05/28 05:32:23;;;;;;;2.63;1.20;;;;;;;30.55;19.84;98396.53;5076138;28;20078;-90
2021/05/28 05:34:49;;;;;;;2.33;1.40;;;;;;;30.32;19.73;98397.09;5077271;28;20036;-90
2021/05/28 05:37:15;;;;;;;1.50;1.05;;;;;;;29.90;19.91;98398.84;5087143;28;20379;-90
2021/05/28 05:39:41;;;;;;;2.92;1.48;;;;;;;30.57;19.64;98398.91;5096082;28;20471;-90
2021/05/28 05:42:08;;;;;;;1.15;0.90;;;;;;;31.33;18.82;98404.41;5097345;28;20032;-90
2021/05/28 05:44:34;;;;;;;1.75;1.02;;;;;;;30.98;18.84;98409.66;5097288;28;20025;-90
2021/05/28 05:47:00;;;;;;;1.17;0.80;;;;;;;30.99;18.63;98411.22;5097214;28;20063;-90
2021/05/28 05:49:26;;;;;;;1.05;0.82;;;;;;;30.22;19.17;98404.00;5097226;28;20032;-89
2021/05/28 05:51:52;;;;;;;0.90;0.52;;;;;;;30.11;19.14;98405.72;5096987;28;20028;-90
2021/05/28 05:54:18;;;;;;;0.70;0.70;;;;;;;28.10;22.53;98413.91;5096858;28;20060;-90
2021/05/28 05:56:45;;;;;;;1.13;0.70;;;;;;;27.70;22.59;98427.66;5097557;28;20028;-90
2021/05/28 05:59:11;;;;;;;0.90;0.55;;;;;;;28.50;21.64;98419.81;5096968;28;20032;-89
2021/05/28 06:01:37;;;;;;;0.75;0.63;;;;;;;28.67;21.16;98424.09;5096985;28;20062;-89
2021/05/28 06:04:04;;;;;;;0.50;0.50;;;;;;;29.25;21.37;98427.25;5085217;28;20032;-90
2021/05/28 06:06:31;;;;;;;1.65;0.85;;;;;;;29.87;19.85;98425.28;5076386;28;20495;-89
2021/05/28 06:08:57;;;;;;;0.70;0.63;;;;;;;29.83;20.32;98424.63;5096003;28;20036;-89
2021/05/28 06:11:23;;;;;;;1.88;1.45;;;;;;;30.05;19.95;98425.34;5096533;28;20031;-89
2021/05/28 06:13:49;;;;;;;2.20;1.30;;;;;;;29.52;20.38;98421.00;5096692;28;20472;-90
2021/05/28 06:16:15;;;;;;;3.90;1.00;;;;;;;29.10;20.63;98420.53;5096589;28;20031;-90
2021/05/28 06:18:41;;;;;;;1.75;1.33;;;;;;;29.43;20.41;98428.16;5097289;28;20040;-90
2021/05/28 06:21:08;;;;;;;1.88;1.40;;;;;;;29.07;21.49;98425.06;5096450;28;20510;-90
2021/05/28 06:23:34;;;;;;;2.63;1.90;;;;;;;29.42;21.04;98423.78;5096494;28;20024;-89
2021/05/28 06:26:00;;;;;;;1.45;1.33;;;;;;;29.74;20.10;98419.69;5096501;28;20101;-89
2021/05/28 06:28:26;;;;;;;1.52;0.90;;;;;;;29.61;19.66;98424.66;5096008;28;20566;-91
2021/05/28 06:30:54;;;;;;;1.30;1.00;;;;;;;28.90;21.33;98420.03;5096395;28;20031;-90
2021/05/28 06:33:20;;;;;;;1.33;1.00;;;;;;;30.28;20.08;98426.81;5096473;28;20032;-89
2021/05/28 06:35:46;;;;;;;2.88;1.35;;;;;;;30.17;19.30;98423.66;5096125;28;20024;-89
2021/05/28 06:38:12;;;;;;;1.40;1.08;;;;;;;30.86;19.21;98424.72;5096381;28;20028;-90
2021/05/28 06:40:39;;;;;;;5.60;0.90;;;;;;;31.44;19.15;98424.56;5096094;28;20028;-91
2021/05/28 06:43:06;;;;;;;0.70;0.70;;;;;;;31.10;18.20;98425.72;5095632;28;20391;-90
2021/05/28 06:45:32;;;;;;;1.10;0.82;;;;;;;30.69;18.44;98418.59;5096176;28;20024;-89
2021/05/28 06:47:59;;;;;;;1.20;0.90;;;;;;;30.86;18.99;98424.72;5096074;28;20062;-90
2021/05/28 06:50:25;;;;;;;0.90;0.70;;;;;;;30.69;19.60;98427.09;5096283;28;20035;-89
2021/05/28 06:52:52;;;;;;;0.85;0.77;;;;;;;30.86;19.12;98410.56;5095833;28;20032;-91
2021/05/28 06:55:18;;;;;;;1.02;0.85;;;;;;;31.03;18.99;98428.88;5096220;28;20475;-91
2021/05/28 06:57:44;;;;;;;0.98;0.90;;;;;;;30.21;19.73;98429.94;5095616;28;20449;-90
2021/05/28 07:00:11;;;;;;;1.33;0.75;;;;;;;30.05;19.76;98445.16;5095741;28;20126;-90
2021/05/28 07:02:37;;;;;;;1.60;0.90;;;;;;;30.20;19.37;98434.06;5083988;28;20040;-90
2021/05/28 07:05:05;;;;;;;0.80;0.80;;;;;;;30.96;18.37;98434.84;5075650;28;20056;-90
2021/05/28 07:07:31;;;;;;;1.23;0.70;;;;;;;31.52;18.36;98431.50;5082728;28;20107;-91
2021/05/28 07:09:57;;;;;;;3.15;0.80;;;;;;;31.11;19.04;98424.44;5095828;28;20545;-90
2021/05/28 07:12:23;;;;;;;3.15;0.98;;;;;;;31.07;19.01;98426.66;5095519;28;20020;-92
2021/05/28 07:14:49;;;;;;;0.85;0.75;;;;;;;30.21;19.56;98432.78;5095568;28;20491;-89
2021/05/28 07:17:15;;;;;;;1.30;0.88;;;;;;;29.33;20.07;98437.88;5095371;28;20028;-91
2021/05/28 07:19:41;;;;;;;3.45;1.10;;;;;;;29.48;20.34;98426.78;5095087;28;20441;-90
2021/05/28 07:22:07;;;;;;;1.17;1.08;;;;;;;30.50;19.99;98436.06;5095214;28;20116;-90
2021/05/28 07:24:34;;;;;;;1.00;0.70;;;;;;;30.80;19.02;98432.31;5095364;28;20032;-90
2021/05/28 07:27:00;;;;;;;1.23;0.85;;;;;;;30.88;19.29;98435.63;5095074;28;20056;-90
2021/05/28 07:29:26;;;;;;;1.52;0.65;;;;;;;30.01;19.67;98433.22;5095557;28;20421;-90
2021/05/28 07:31:52;;;;;;;0.82;0.60;;;;;;;29.07;21.37;98429.94;5093855;28;20115;-91
2021/05/28 07:34:18;;;;;;;0.60;0.60;;;;;;;30.48;20.15;98427.25;5095314;28;20028;-90
2021/05/28 07:36:44;;;;;;;0.55;0.50;;;;;;;30.16;19.81;98425.69;5094953;28;20031;-91
2021/05/28 07:39:10;;;;;;;0.80;0.60;;;;;;;29.54;20.41;98429.81;5094939;28;20039;-90
2021/05/28 07:41:37;;;;;;;1.52;1.05;;;;;;;29.53;19.67;98429.00;5094653;28;20416;-91
2021/05/28 07:44:05;;;;;;;1.17;0.50;;;;;;;28.99;20.72;98429.41;5095186;28;20396;-90
2021/05/28 07:46:31;;;;;;;0.90;0.75;;;;;;;29.27;20.30;98434.03;5095192;28;20054;-90
2021/05/28 07:48:57;;;;;;;0.93;0.52;;;;;;;29.80;20.38;98431.22;5094710;28;20377;-90
2021/05/28 07:51:23;;;;;;;1.08;0.70;;;;;;;29.27;20.33;98431.19;5095177;28;20048;-90
2021/05/28 07:53:49;;;;;;;0.43;0.43;;;;;;;29.64;20.90;98429.38;5094369;28;20089;-91
2021/05/28 07:56:15;;;;;;;1.05;0.60;;;;;;;29.24;21.71;98432.13;5093832;28;20480;-90
2021/05/28 07:58:41;;;;;;;0.60;0.40;;;;;;;30.16;19.19;98433.41;5094624;28;20032;-91
2021/05/28 08:01:07;;;;;;;1.05;0.60;;;;;;;30.72;19.65;98431.81;5085255;28;20025;-90
2021/05/28 08:03:33;;;;;;;0.85;0.60;;;;;;;29.73;19.93;98426.63;5073132;28;20044;-91
2021/05/28 08:05:59;;;;;;;4.68;0.50;;;;;;;30.42;19.99;98431.94;5074523;28;20070;-89
2021/05/28 08:08:28;;;;;;;0.75;0.50;;;;;;;30.68;19.25;98425.53;5076259;28;20037;-90
2021/05/28 08:10:55;;;;;;;0.63;0.60;;;;;;;31.46;18.85;98424.13;5094150;28;20050;-89
2021/05/28 08:13:22;;;;;;;0.47;0.40;;;;;;;30.86;19.00;98421.09;5092959;28;20032;-89
2021/05/28 08:15:48;;;;;;;0.43;0.40;;;;;;;30.39;19.66;98421.53;5093136;28;20103;-90
2021/05/28 08:18:18;;;;;;;0.30;0.30;;;;;;;30.37;19.45;98416.34;5094216;28;20048;-90
2021/05/28 08:20:44;;;;;;;0.50;0.40;;;;;;;29.83;20.00;98410.47;5094431;28;20024;-89
2021/05/28 08:23:10;;;;;;;1.17;0.50;;;;;;;30.46;19.74;98410.69;5092998;28;20036;-89
2021/05/28 08:25:36;;;;;;;0.75;0.45;;;;;;;31.53;18.53;98413.19;5093842;28;20511;-90
2021/05/28 08:28:02;;;;;;;0.70;0.50;;;;;;;31.20;20.25;98410.22;5094264;28;20024;-90
2021/05/28 08:30:29;;;;;;;0.50;0.40;;;;;;;30.98;18.67;98428.69;5093973;28;20032;-90
2021/05/28 08:32:55;;;;;;;0.45;0.40;;;;;;;30.69;20.07;98412.91;5094167;28;20099;-90
2021/05/28 08:35:21;;;;;;;0.90;0.32;;;;;;;29.34;20.06;98422.44;5093944;28;20032;-90
2021/05/28 08:37:47;;;;;;;0.40;0.40;;;;;;;29.01;19.94;98434.59;5094284;28;20024;-90
2021/05/28 08:40:15;;;;;;;1.48;1.25;;;;;;;29.14;20.41;98430.47;5093799;28;20031;-89
2021/05/28 08:42:44;;;;;;;0.70;0.50;;;;;;;29.74;19.64;98430.22;5093873;28;20024;-90
2021/05/28 08:45:11;;;;;;;0.47;0.47;;;;;;;30.11;19.93;98437.63;5093627;28;20080;-90
2021/05/28 08:47:40;;;;;;;0.57;0.40;;;;;;;29.71;20.05;98429.09;5093722;28;20104;-90
2021/05/28 08:50:07;;;;;;;0.50;0.50;;;;;;;30.71;19.78;98420.97;5094025;28;20024;-90
2021/05/28 08:52:33;;;;;;;0.30;0.30;;;;;;;30.52;18.62;98419.38;5093857;28;20395;-89
2021/05/28 08:54:59;;;;;;;0.60;0.55;;;;;;;31.35;18.62;98421.72;5092219;28;20436;-90
2021/05/28 08:57:25;;;;;;;0.47;0.47;;;;;;;31.95;17.27;98419.66;5092424;28;20063;-91
2021/05/28 08:59:52;;;;;;;0.55;0.40;;;;;;;32.55;18.46;98422.41;5086362;28;20104;-89
2021/05/28 09:02:32;;;;;;;1.38;0.40;;;;;;;32.77;16.84;98421.31;5100477;28;20050;-96
2021/05/28 09:05:07;;;;;;;0.52;0.47;;;;;;;31.92;17.43;98420.66;5093632;28;20060;-90
2021/05/28 09:07:34;;;;;;;0.52;0.50;;;;;;;32.51;17.18;98423.88;5093573;28;20110;-89
2021/05/28 09:10:00;;;;;;;1.05;0.50;;;;;;;32.53;18.63;98424.97;5093257;28;20101;-89
2021/05/28 09:12:27;;;;;;;0.60;0.50;;;;;;;31.64;17.58;98421.22;5093521;28;20056;-89
2021/05/28 09:14:53;;;;;;;0.45;0.32;;;;;;;30.60;18.74;98421.41;5093532;28;20043;-89
2021/05/28 09:17:21;;;;;;;0.40;0.40;;;;;;;29.67;19.30;98413.50;5093318;28;20036;-89
2021/05/28 09:19:57;;;;;;;0.85;0.52;;;;;;;29.46;19.22;98420.00;5093253;28;20491;-89
2021/05/28 09:22:37;;;;;;;0.85;0.70;;;;;;;30.23;19.84;98411.22;5093081;28;20441;-89
2021/05/28 09:25:04;;;;;;;0.82;0.65;;;;;;;30.34;19.67;98403.09;5093392;28;20387;-89
2021/05/28 09:27:33;;;;;;;0.82;0.63;;;;;;;30.87;19.70;98408.50;5094162;28;20357;-89
2021/05/28 09:30:11;;;;;;;0.40;0.40;;;;;;;31.03;17.97;98411.06;5093261;28;20422;-89
2021/05/28 09:32:45;;;;;;;0.52;0.50;;;;;;;31.76;18.26;98412.50;5093545;28;20116;-89
2021/05/28 09:35:17;;;;;;;0.38;0.38;;;;;;;32.53;17.46;98407.91;5093384;28;20020;-89
2021/05/28 09:37:52;;;;;;;3.03;0.65;;;;;;;32.20;17.81;98414.84;5091665;28;20028;-89
2021/05/28 09:40:27;;;;;;;0.32;0.32;;;;;;;30.55;19.17;98413.53;5093113;28;20063;-90
2021/05/28 09:42:57;;;;;;;0.93;0.60;;;;;;;30.54;18.86;98408.34;5093226;28;20017;-89
2021/05/28 09:45:35;;;;;;;0.50;0.50;;;;;;;30.46;19.60;98407.84;5093719;28;20077;-89
2021/05/28 09:48:21;;;;;;;0.55;0.47;;;;;;;32.53;17.81;98410.75;5093156;28;20407;-89
2021/05/28 09:50:58;;;;;;;0.80;0.52;;;;;;;33.99;16.99;98398.75;5093077;28;20476;-89
2021/05/28 09:53:40;;;;;;;1.42;0.45;;;;;;;34.21;15.76;98406.88;5092642;28;20036;-89
2021/05/28 09:56:35;;;;;;;0.63;0.40;;;;;;;33.81;16.17;98396.13;5093626;28;20035;-89
2021/05/28 09:59:06;;;;;;;0.60;0.30;;;;;;;31.65;17.81;98417.91;5077456;28;20045;-90
2021/05/28 10:01:36;;;;;;;0.52;0.50;;;;;;;30.83;19.70;98416.41;5073682;28;20025;-89
2021/05/28 10:04:11;;;;;;;0.80;0.65;;;;;;;31.27;19.12;98414.81;5072844;28;20090;-89
2021/05/28 10:06:40;;;;;;;0.40;0.30;;;;;;;31.38;18.83;98418.75;5071305;28;20465;-89
2021/05/28 10:09:09;;;;;;;0.70;0.70;;;;;;;30.89;19.75;98415.31;5081471;28;20031;-89
2021/05/28 10:11:37;;;;;;;0.50;0.40;;;;;;;30.66;19.55;98413.88;5092931;28;20494;-89
2021/05/28 10:14:04;;;;;;;0.70;0.40;;;;;;;31.95;19.16;98410.38;5092856;28;20040;-89
2021/05/28 10:16:31;;;;;;;1.40;0.52;;;;;;;32.43;18.13;98414.88;5092889;28;20552;-89
2021/05/28 10:18:58;;;;;;;0.65;0.57;;;;;;;33.30;17.54;98402.97;5094822;28;20046;-89
2021/05/28 10:21:26;;;;;;;0.80;0.68;;;;;;;33.55;17.22;98409.41;5096271;28;20079;-89
2021/05/28 10:23:52;;;;;;;0.77;0.57;;;;;;;33.98;17.21;98400.78;5096580;28;20054;-89
2021/05/28 10:26:26;;;;;;;0.50;0.50;;;;;;;33.22;16.66;98401.00;5096354;28;20051;-89
2021/05/28 10:28:52;;;;;;;0.55;0.50;;;;;;;32.45;17.99;98411.53;5096421;28;20081;-89
2021/05/28 10:31:18;;;;;;;0.88;0.50;;;;;;;32.75;18.28;98399.03;5096467;28;20107;-89
2021/05/28 10:33:49;;;;;;;0.47;0.47;;;;;;;32.90;17.19;98391.34;5096224;28;20045;-89
2021/05/28 10:36:39;;;;;;;;;;;;;;;33.19;17.10;98388.56;5096360;28;20032;-89
2021/05/28 10:39:16;;;;;;;0.73;0.50;;;;;;;34.07;16.73;98385.69;5096908;28;19919;-89
2021/05/28 10:41:48;;;;;;;1.60;0.30;;;;;;;32.69;17.15;98386.75;5096040;28;20032;-90
2021/05/28 10:44:18;;;;;;;0.40;0.40;;;;;;;32.24;17.47;98390.69;5096042;28;20032;-90
2021/05/28 10:46:56;;;;;;;1.08;0.30;;;;;;;32.78;17.03;98383.06;5096340;28;20035;-90
2021/05/28 10:50:03;;;;;;;0.90;0.90;;;;;;;32.00;17.61;98376.44;5094980;28;20040;-90
2021/05/28 10:52:29;;;;;;;1.55;0.40;;;;;;;31.36;18.24;98386.44;5073646;28;20092;-91
2021/05/28 10:55:02;;;;;;;0.30;0.30;;;;;;;30.92;19.00;98383.19;5092596;28;20039;-90
2021/05/28 10:57:33;;;;;;;1.15;0.55;;;;;;;31.89;17.69;98383.88;5089002;28;20052;-89
2021/05/28 11:00:08;;;;;;;0.40;0.40;;;;;;;32.72;17.24;98386.56;5083855;28;20114;-89
2021/05/28 11:02:53;;;;;;;0.52;0.50;;;;;;;32.40;17.72;98383.78;5095813;28;20028;-91
2021/05/28 11:05:49;;;;;;;0.13;0.13;;;;;;;31.80;16.77;98384.72;5095738;28;20032;-90
2021/05/28 11:08:36;;;;;;;0.40;0.40;;;;;;;32.03;18.02;98381.16;5096046;28;20024;-90
2021/05/28 11:11:04;;;;;;;1.30;0.40;;;;;;;33.23;18.28;98376.97;5095775;28;20105;-90
2021/05/28 11:13:30;;;;;;;0.22;0.22;;;;;;;33.99;16.88;98379.59;5095566;28;20566;-89
2021/05/28 11:15:58;;;;;;;0.55;0.22;;;;;;;34.44;15.81;98386.75;5095536;28;20035;-89
2021/05/28 11:18:31;;;;;;;0.20;0.20;;;;;;;34.36;15.54;98384.78;5094949;28;20052;-89
2021/05/28 11:21:24;;;;;;;0.40;0.20;;;;;;;34.01;15.25;98390.47;5095706;28;20028;-91
2021/05/28 11:23:53;;;;;;;0.20;0.20;;;;;;;34.33;17.17;98380.84;5095502;28;20119;-89
2021/05/28 11:26:27;;;;;;;0.30;0.20;;;;;;;34.30;16.41;98384.72;5095708;28;20039;-90
2021/05/28 11:28:58;;;;;;;0.70;0.20;;;;;;;34.90;15.99;98377.47;5093962;28;20384;-89
2021/05/28 11:31:28;;;;;;;0.30;0.20;;;;;;;34.75;15.67;98381.19;5095329;28;20036;-89
2021/05/28 11:33:57;;;;;;;0.77;0.30;;;;;;;33.92;15.98;98377.13;5094917;28;20039;-90
2021/05/28 11:36:29;;;;;;;0.35;0.30;;;;;;;33.70;16.57;98379.63;5095221;28;20116;-90
2021/05/28 11:39:23;;;;;;;0.20;0.20;;;;;;;31.79;16.39;98391.66;5095703;28;20024;-90